Time;durP1;ratioP1;P1;durP2;ratioP2;P2;SDS_P1;SDS_P2;PMS_P1;PMS_P2;Temp;Humidity;BMP_temperature;BMP_pressure;BME280_temperature;BME280_humidity;BME280_pressure;Samples;Min_cycle;Max_cycle;Signal;HPM_P1;HPM_P2
2022/11/19 00:01:22;;;;;;;19.15;12.80;;;3.50;99.90;;;;;;5033816;28;20490;-78
2022/11/19 00:03:48;;;;;;;19.25;12.32;;;3.50;99.90;;;;;;5036855;28;20494;-79
2022/11/19 00:06:19;;;;;;;21.90;13.23;;;3.50;99.90;;;;;;5040799;28;20040;-78
2022/11/19 00:08:45;;;;;;;18.58;12.32;;;3.50;99.90;;;;;;5041835;28;20060;-79
2022/11/19 00:14:02;;;;;;;19.90;12.32;;;3.50;99.90;;;;;;5037041;28;20170;-78
2022/11/19 00:16:28;;;;;;;19.45;11.65;;;3.30;99.90;;;;;;5043730;28;20044;-78
2022/11/19 00:18:53;;;;;;;18.42;12.15;;;3.40;99.90;;;;;;5039792;28;20037;-78
2022/11/19 00:21:19;;;;;;;17.30;11.90;;;3.40;99.90;;;;;;5036468;28;20033;-78
2022/11/19 00:23:45;;;;;;;19.13;12.00;;;3.40;99.90;;;;;;5038907;28;20049;-78
2022/11/19 00:26:13;;;;;;;17.90;10.93;;;3.30;99.90;;;;;;5038868;28;20442;-78
2022/11/19 00:28:39;;;;;;;18.85;11.35;;;3.20;99.90;;;;;;5043413;28;20040;-78
2022/11/19 00:31:10;;;;;;;17.23;10.75;;;3.40;99.90;;;;;;5019040;28;20084;-78
2022/11/19 00:33:37;;;;;;;18.35;11.80;;;3.40;99.90;;;;;;5020599;28;20045;-78
2022/11/19 00:36:06;;;;;;;18.15;11.23;;;3.30;99.90;;;;;;5030265;28;20044;-78
2022/11/19 00:38:32;;;;;;;17.13;11.02;;;3.30;99.90;;;;;;5046419;28;20040;-78
2022/11/19 00:40:58;;;;;;;17.20;11.20;;;3.30;99.90;;;;;;5015212;28;20083;-78
2022/11/19 00:46:08;;;;;;;17.10;11.27;;;3.20;99.90;;;;;;5043258;28;20110;-78
2022/11/19 00:48:34;;;;;;;17.98;11.10;;;3.30;99.90;;;;;;5019904;28;20037;-78
2022/11/19 00:51:00;;;;;;;18.92;11.48;;;3.20;99.90;;;;;;5038015;28;20068;-78
2022/11/19 00:53:26;;;;;;;18.50;12.02;;;2.90;99.90;;;;;;5012716;28;20049;-78
2022/11/19 00:55:51;;;;;;;21.98;11.32;;;3.00;99.90;;;;;;5032351;28;20036;-78
2022/11/19 00:58:18;;;;;;;18.17;11.23;;;3.20;99.90;;;;;;5036009;28;20040;-78
2022/11/19 01:00:44;;;;;;;18.27;11.73;;;3.20;99.90;;;;;;5029454;28;20379;-78
2022/11/19 01:03:10;;;;;;;19.70;12.30;;;3.20;99.90;;;;;;5034163;28;20506;-78
2022/11/19 01:05:35;;;;;;;17.63;11.13;;;3.20;99.90;;;;;;5041702;28;20067;-78
2022/11/19 01:08:01;;;;;;;18.98;11.00;;;3.70;99.90;;;;;;5045462;28;20120;-78
2022/11/19 01:10:27;;;;;;;17.25;10.43;;;3.20;99.90;;;;;;5031012;28;20045;-78
2022/11/19 01:15:36;;;;;;;16.45;9.57;;;3.20;99.90;;;;;;5037081;28;20057;-78
2022/11/19 01:18:02;;;;;;;15.60;10.15;;;3.20;99.90;;;;;;5031995;28;20041;-78
2022/11/19 01:20:28;;;;;;;18.73;11.32;;;4.50;99.90;;;;;;5035358;28;20128;-78
2022/11/19 01:22:54;;;;;;;19.48;11.35;;;3.20;99.90;;;;;;5031986;28;20041;-78
2022/11/19 01:25:19;;;;;;;15.90;9.95;;;3.20;99.90;;;;;;5050311;28;20037;-78
2022/11/19 01:27:45;;;;;;;16.67;10.90;;;3.10;99.90;;;;;;5025455;28;20041;-78
2022/11/19 01:30:11;;;;;;;18.77;10.70;;;3.60;99.90;;;;;;5032825;28;20045;-78
2022/11/19 01:32:36;;;;;;;18.45;11.18;;;3.20;99.90;;;;;;5035375;28;20041;-78
2022/11/19 01:35:02;;;;;;;14.10;8.75;;;3.10;99.90;;;;;;5032805;28;20229;-78
2022/11/19 01:37:28;;;;;;;14.80;8.88;;;;;;;;;;5037128;28;20493;-78
2022/11/19 01:39:54;;;;;;;14.05;8.70;;;3.10;99.90;;;;;;5045306;28;20040;-78
2022/11/19 01:42:48;;;;;;;12.68;7.95;;;3.60;99.90;;;;;;5014326;28;20481;-78
2022/11/19 01:45:35;;;;;;;13.90;8.35;;;3.00;99.90;;;;;;5038744;28;20041;-78
2022/11/19 01:48:21;;;;;;;13.50;7.93;;;3.10;99.90;;;;;;5030002;28;20489;-78
2022/11/19 01:50:57;;;;;;;15.82;8.32;;;3.00;99.90;;;;;;5035517;28;20053;-78
2022/11/19 01:53:28;;;;;;;16.55;8.25;;;3.00;99.90;;;;;;5034125;28;20328;-78
2022/11/19 01:55:55;;;;;;;12.13;7.40;;;3.40;99.90;;;;;;5030034;28;20410;-78
2022/11/19 01:58:23;;;;;;;12.32;7.22;;;2.90;99.90;;;;;;5027264;28;20060;-79
2022/11/19 02:00:48;;;;;;;15.18;7.75;;;3.00;99.90;;;;;;5037053;28;20041;-78
2022/11/19 02:03:15;;;;;;;11.73;7.22;;;2.90;99.90;;;;;;5013359;28;20041;-78
2022/11/19 02:05:42;;;;;;;11.38;6.45;;;2.90;99.90;;;;;;5031291;28;20048;-77
2022/11/19 02:08:29;;;;;;;9.70;6.35;;;2.90;99.90;;;;;;5030900;28;20045;-77
2022/11/19 02:11:16;;;;;;;11.93;6.60;;;2.90;99.90;;;;;;5030534;28;20616;-77
2022/11/19 02:13:51;;;;;;;10.02;6.07;;;2.90;99.90;;;;;;5008319;28;20041;-78
2022/11/19 02:16:45;;;;;;;9.35;5.40;;;2.50;99.90;;;;;;5010854;28;20073;-78
2022/11/19 02:19:14;;;;;;;9.15;5.68;;;2.90;99.90;;;;;;5039147;28;20124;-78
2022/11/19 02:22:18;;;;;;;10.85;5.38;;;2.90;99.90;;;;;;5029165;28;20038;-77
2022/11/19 02:24:58;;;;;;;9.48;6.20;;;2.80;99.90;;;;;;5019439;28;20045;-77
2022/11/19 02:27:48;;;;;;;10.55;6.25;;;2.80;99.90;;;;;;5041906;28;20057;-77
2022/11/19 02:30:18;;;;;;;10.15;5.88;;;2.80;99.90;;;;;;5028995;28;20049;-78
2022/11/19 02:32:52;;;;;;;10.05;6.05;;;2.70;99.90;;;;;;5033744;28;20038;-77
2022/11/19 02:35:23;;;;;;;10.10;5.85;;;2.80;99.90;;;;;;5021017;28;20046;-78
2022/11/19 02:37:59;;;;;;;9.45;5.80;;;2.70;99.90;;;;;;5040885;28;20049;-78
2022/11/19 02:40:35;;;;;;;9.30;5.47;;;2.70;99.90;;;;;;5030600;28;20052;-78
2022/11/19 02:43:06;;;;;;;8.55;5.50;;;2.70;99.90;;;;;;5016791;28;20548;-78
2022/11/19 02:45:39;;;;;;;9.30;5.55;;;2.70;99.90;;;;;;5022735;28;20041;-78
2022/11/19 02:48:14;;;;;;;10.02;5.75;;;2.60;99.90;;;;;;5040236;28;20053;-78
2022/11/19 02:50:53;;;;;;;12.52;5.95;;;2.60;99.90;;;;;;5013908;28;20046;-78
2022/11/19 02:53:21;;;;;;;8.07;5.22;;;2.70;99.90;;;;;;5037051;28;20052;-78
2022/11/19 03:06:53;;;;;;;9.55;5.30;;;2.60;99.90;;;;;;5035133;28;20494;-78
2022/11/19 03:09:19;;;;;;;8.57;5.35;;;2.60;99.90;;;;;;5033229;28;20044;-78
2022/11/19 03:11:51;;;;;;;8.95;5.07;;;2.50;99.90;;;;;;5029465;28;20068;-78
2022/11/19 03:17:24;;;;;;;8.40;5.20;;;2.60;99.90;;;;;;5033864;28;20080;-78
2022/11/19 03:19:59;;;;;;;8.82;5.28;;;2.50;99.90;;;;;;5032814;28;20480;-77
2022/11/19 03:22:50;;;;;;;8.75;5.43;;;2.20;99.90;;;;;;5021585;28;20045;-78
2022/11/19 03:25:39;;;;;;;9.82;5.38;;;2.50;99.90;;;;;;5024730;28;20494;-78
2022/11/19 03:28:15;;;;;;;8.80;5.20;;;2.40;99.90;;;;;;5047964;28;20037;-77
2022/11/19 03:30:43;;;;;;;9.13;5.75;;;2.30;99.90;;;;;;5041166;28;20108;-77
2022/11/19 03:33:31;;;;;;;8.90;5.43;;;2.20;99.90;;;;;;5041806;28;20509;-78
2022/11/19 03:36:11;;;;;;;10.30;5.78;;;2.30;99.90;;;;;;5035993;28;20436;-77
2022/11/19 03:38:45;;;;;;;12.00;5.95;;;2.20;99.90;;;;;;5018392;28;20091;-78
2022/11/19 03:41:14;;;;;;;10.50;5.85;;;2.20;99.90;;;;;;5019873;28;20564;-77
2022/11/19 03:43:42;;;;;;;8.38;5.20;;;2.10;99.90;;;;;;5029517;28;20060;-77
2022/11/19 03:46:14;;;;;;;10.80;6.25;;;2.10;99.90;;;;;;5019763;28;20048;-78
2022/11/19 03:48:48;;;;;;;10.02;5.93;;;2.20;99.90;;;;;;5032285;28;20077;-78
2022/11/19 03:51:29;;;;;;;11.02;5.93;;;2.20;99.90;;;;;;5032230;28;20041;-78
2022/11/19 03:53:54;;;;;;;11.48;6.25;;;2.20;99.90;;;;;;5029209;28;20049;-77
2022/11/19 03:56:25;;;;;;;10.50;5.93;;;2.10;99.90;;;;;;5038632;28;20045;-78
2022/11/19 03:58:52;;;;;;;12.45;6.93;;;2.10;99.90;;;;;;5033215;28;20026;-78
2022/11/19 04:01:18;;;;;;;10.25;6.35;;;2.10;99.90;;;;;;5033717;28;20038;-78
2022/11/19 04:04:34;;;;;;;12.77;6.50;;;2.10;99.90;;;;;;5038196;28;20048;-78
2022/11/19 04:06:29;;;;;;;12.95;6.57;;;2.00;99.90;;;;;;5027148;28;20045;-77
2022/11/19 04:08:55;;;;;;;9.63;5.95;;;3.50;99.90;;;;;;5015375;28;20036;-77
2022/11/19 04:11:20;;;;;;;11.13;6.68;;;1.90;99.90;;;;;;5035370;28;20409;-78
2022/11/19 04:13:46;;;;;;;10.30;6.60;;;2.00;99.90;;;;;;5033955;28;20421;-78
2022/11/19 04:16:12;;;;;;;12.07;6.75;;;1.90;99.90;;;;;;5039382;28;20474;-78
2022/11/19 04:18:37;;;;;;;9.93;6.03;;;1.80;99.90;;;;;;5031190;28;20041;-78
2022/11/19 04:21:03;;;;;;;11.20;6.15;;;1.80;99.90;;;;;;5032700;28;20030;-77
2022/11/19 04:23:28;;;;;;;11.90;6.90;;;2.90;99.90;;;;;;5048184;28;20033;-77
2022/11/19 04:25:54;;;;;;;10.50;6.18;;;1.80;99.90;;;;;;5036210;28;20033;-78
2022/11/19 04:28:19;;;;;;;10.55;6.10;;;1.70;99.90;;;;;;5029588;28;20081;-77
2022/11/19 04:30:45;;;;;;;10.15;5.65;;;1.70;99.90;;;;;;5028263;28;20029;-77
2022/11/19 04:33:12;;;;;;;10.00;5.95;;;1.70;99.90;;;;;;5021956;28;20052;-77
2022/11/19 04:35:38;;;;;;;11.75;6.43;;;1.70;99.90;;;;;;5042395;28;20037;-77
2022/11/19 04:38:03;;;;;;;10.38;5.90;;;1.60;99.90;;;;;;5021849;28;20048;-77
2022/11/19 04:40:29;;;;;;;9.68;5.90;;;1.60;99.90;;;;;;5040065;28;20095;-77
2022/11/19 04:42:54;;;;;;;10.00;5.93;;;1.60;99.90;;;;;;5041248;28;20037;-77
2022/11/19 04:45:20;;;;;;;10.13;6.05;;;1.60;99.90;;;;;;5034285;28;20041;-77
2022/11/19 04:47:45;;;;;;;11.43;6.22;;;1.60;99.90;;;;;;5026750;28;20112;-77
2022/11/19 04:50:11;;;;;;;11.82;6.35;;;1.60;99.90;;;;;;5013949;28;20044;-77
2022/11/19 04:52:37;;;;;;;10.70;6.47;;;1.60;99.90;;;;;;5045885;28;20285;-77
2022/11/19 04:55:02;;;;;;;9.48;5.93;;;1.60;99.90;;;;;;5025174;28;20397;-77
2022/11/19 04:57:28;;;;;;;10.93;5.95;;;1.50;99.90;;;;;;5043791;28;20067;-77
2022/11/19 04:59:54;;;;;;;12.57;6.45;;;1.50;99.90;;;;;;5017839;28;20214;-77
2022/11/19 05:02:19;;;;;;;10.48;5.38;;;1.50;99.90;;;;;;5033107;28;20037;-77
2022/11/19 05:04:45;;;;;;;14.00;5.93;;;1.50;99.90;;;;;;5040752;28;20048;-77
2022/11/19 05:07:10;;;;;;;11.13;5.90;;;1.50;99.90;;;;;;5047701;28;20076;-77
2022/11/19 05:09:36;;;;;;;11.25;5.80;;;1.40;99.90;;;;;;5017540;28;20076;-77
2022/11/19 05:12:02;;;;;;;11.85;6.40;;;0.50;99.90;;;;;;5032851;28;20048;-77
2022/11/19 05:14:27;;;;;;;9.75;5.80;;;1.50;99.90;;;;;;5034073;28;20048;-77
2022/11/19 05:16:53;;;;;;;11.45;5.80;;;1.30;99.90;;;;;;5038266;28;21415;-77
2022/11/19 05:19:18;;;;;;;10.75;6.03;;;1.50;99.90;;;;;;5037362;28;20029;-77
2022/11/19 05:21:44;;;;;;;10.30;6.30;;;1.40;99.90;;;;;;5031496;28;20072;-77
2022/11/19 05:24:12;;;;;;;10.93;6.20;;;1.30;99.90;;;;;;5022446;28;20124;-77
2022/11/19 05:26:38;;;;;;;9.93;5.90;;;1.90;99.90;;;;;;5036868;28;20116;-77
2022/11/19 05:29:04;;;;;;;10.77;6.15;;;0.10;99.90;;;;;;5035360;28;20076;-77
2022/11/19 05:31:30;;;;;;;10.88;5.82;;;1.30;99.90;;;;;;5030174;28;20069;-77
2022/11/19 05:33:55;;;;;;;10.35;6.40;;;1.20;99.90;;;;;;5020207;28;20046;-77
2022/11/19 05:36:21;;;;;;;10.15;5.95;;;1.20;99.90;;;;;;5031065;28;20040;-77
2022/11/19 05:38:46;;;;;;;11.85;6.53;;;1.20;99.90;;;;;;5029753;28;20061;-77
2022/11/19 05:41:12;;;;;;;10.88;6.28;;;1.30;99.90;;;;;;5030442;28;20041;-77
2022/11/19 05:43:37;;;;;;;10.50;5.97;;;1.20;99.90;;;;;;5034993;28;20037;-77
2022/11/19 05:46:03;;;;;;;9.50;5.93;;;1.20;99.90;;;;;;5014827;28;20135;-77
2022/11/19 05:48:29;;;;;;;9.73;5.47;;;2.30;99.90;;;;;;5028740;28;20116;-77
2022/11/19 05:50:54;;;;;;;9.50;5.53;;;1.20;99.90;;;;;;5014930;28;20045;-77
2022/11/19 05:53:20;;;;;;;9.75;5.78;;;1.10;99.90;;;;;;5030836;28;20037;-77
2022/11/19 05:55:46;;;;;;;9.77;5.82;;;1.20;99.90;;;;;;5014643;28;20033;-77
2022/11/19 05:58:12;;;;;;;8.85;5.60;;;1.20;99.90;;;;;;5039891;28;20183;-77
2022/11/19 06:00:38;;;;;;;10.77;5.80;;;1.20;99.90;;;;;;5029631;28;20045;-77
2022/11/19 06:03:03;;;;;;;10.23;5.70;;;1.20;99.90;;;;;;5020290;28;20046;-77
2022/11/19 06:05:30;;;;;;;10.15;6.10;;;1.10;99.90;;;;;;5034818;28;20040;-78
2022/11/19 06:07:57;;;;;;;10.52;5.72;;;1.10;99.90;;;;;;5036273;28;20079;-78
2022/11/19 06:10:22;;;;;;;12.02;6.43;;;3.10;99.90;;;;;;5011846;28;20041;-77
2022/11/19 06:12:48;;;;;;;10.85;5.75;;;1.10;99.90;;;;;;4994889;28;20409;-78
2022/11/19 06:15:14;;;;;;;10.32;6.20;;;1.10;99.90;;;;;;5010315;28;20046;-77
2022/11/19 06:17:40;;;;;;;12.73;6.57;;;1.10;99.90;;;;;;5032806;28;20025;-78
2022/11/19 06:20:09;;;;;;;10.07;6.13;;;2.50;99.90;;;;;;5022907;28;20045;-78
2022/11/19 06:22:36;;;;;;;10.68;6.07;;;1.00;99.90;;;;;;5028946;28;20038;-77
2022/11/19 06:25:04;;;;;;;11.90;6.90;;;1.30;99.90;;;;;;5030972;28;20046;-79
2022/11/19 06:27:29;;;;;;;10.43;6.45;;;1.00;99.90;;;;;;5025407;28;20547;-78
2022/11/19 06:29:55;;;;;;;11.73;6.95;;;1.00;99.90;;;;;;5026103;28;20191;-78
2022/11/19 06:32:21;;;;;;;10.93;6.60;;;0.90;99.90;;;;;;5028156;28;20030;-78
2022/11/19 06:34:46;;;;;;;10.50;6.53;;;1.00;99.90;;;;;;5019292;28;20202;-76
2022/11/19 06:37:12;;;;;;;10.77;6.65;;;1.40;99.90;;;;;;5033209;28;20038;-75
2022/11/19 06:39:38;;;;;;;11.75;7.35;;;0.90;99.90;;;;;;5042415;28;20044;-77
2022/11/19 06:44:48;;;;;;;12.68;7.05;;;1.90;99.90;;;;;;5032547;28;20057;-78
2022/11/19 06:47:14;;;;;;;14.38;7.80;;;1.90;99.90;;;;;;5039576;28;20585;-78
2022/11/19 06:49:39;;;;;;;11.75;7.50;;;0.90;99.90;;;;;;5030351;28;20085;-77
2022/11/19 06:52:05;;;;;;;16.30;7.60;;;0.80;99.90;;;;;;5040047;28;20128;-76
2022/11/19 06:54:30;;;;;;;13.18;7.38;;;0.90;99.90;;;;;;5050546;28;20476;-78
2022/11/19 06:56:56;;;;;;;12.57;7.82;;;0.90;99.90;;;;;;5043646;28;20033;-77
2022/11/19 06:59:21;;;;;;;13.15;7.85;;;0.80;99.90;;;;;;5043716;28;20030;-77
2022/11/19 07:01:47;;;;;;;12.73;7.68;;;0.80;99.90;;;;;;5033230;28;20053;-76
2022/11/19 07:04:13;;;;;;;13.15;8.40;;;0.80;99.90;;;;;;5035328;28;20456;-77
2022/11/19 07:06:38;;;;;;;13.60;7.70;;;0.80;99.90;;;;;;5019178;28;20041;-77
2022/11/19 07:09:04;;;;;;;14.10;8.02;;;1.80;99.90;;;;;;5041232;28;20529;-77
2022/11/19 07:11:29;;;;;;;14.63;8.60;;;0.80;99.90;;;;;;5039477;28;20120;-77
2022/11/19 07:13:56;;;;;;;14.80;8.57;;;0.70;99.90;;;;;;5048252;28;20034;-77
2022/11/19 07:16:27;;;;;;;14.55;8.35;;;0.70;99.90;;;;;;5040843;28;20045;-77
2022/11/19 07:18:52;;;;;;;15.23;8.50;;;0.80;99.90;;;;;;5034912;28;20409;-78
2022/11/19 07:21:18;;;;;;;14.63;8.35;;;0.70;99.90;;;;;;5028473;28;20045;-77
2022/11/19 07:23:43;;;;;;;13.38;8.07;;;1.20;99.90;;;;;;5045922;28;20033;-77
2022/11/19 07:26:09;;;;;;;15.75;9.38;;;0.70;99.90;;;;;;5043281;28;20030;-77
2022/11/19 07:28:35;;;;;;;14.48;8.15;;;0.70;99.90;;;;;;5032176;28;20034;-77
2022/11/19 07:31:05;;;;;;;14.23;8.73;;;0.70;99.90;;;;;;5048998;28;20167;-77
2022/11/19 07:33:30;;;;;;;16.65;9.55;;;0.80;99.90;;;;;;5031488;28;20099;-77
2022/11/19 07:35:56;;;;;;;16.55;9.57;;;0.80;99.90;;;;;;5033468;28;20080;-77
2022/11/19 07:38:21;;;;;;;16.27;8.77;;;0.80;99.90;;;;;;5031175;28;20049;-77
2022/11/19 07:40:54;;;;;;;15.88;9.70;;;0.80;99.90;;;;;;5038525;28;20036;-77
2022/11/19 07:43:20;;;;;;;15.93;9.15;;;0.70;99.90;;;;;;5046016;28;20493;-77
2022/11/19 07:45:46;;;;;;;16.15;9.48;;;0.70;99.90;;;;;;5024089;28;20045;-77
2022/11/19 07:48:12;;;;;;;16.80;9.70;;;0.80;99.90;;;;;;5031266;28;20124;-78
2022/11/19 07:50:39;;;;;;;15.43;9.20;;;0.70;99.90;;;;;;5038448;28;20383;-77
2022/11/19 07:53:04;;;;;;;15.50;8.90;;;0.70;99.90;;;;;;5036584;28;20053;-77
2022/11/19 07:55:30;;;;;;;14.77;9.30;;;0.70;99.90;;;;;;5032927;28;20433;-77
2022/11/19 07:57:55;;;;;;;16.80;9.43;;;0.70;99.90;;;;;;5032268;28;20044;-77
2022/11/19 08:00:21;;;;;;;15.35;8.85;;;0.70;99.90;;;;;;5031750;28;20041;-77
2022/11/19 08:02:48;;;;;;;15.00;9.15;;;0.70;99.90;;;;;;5024648;28;20370;-77
2022/11/19 08:05:14;;;;;;;15.77;9.45;;;0.70;99.90;;;;;;5017512;28;20049;-77
2022/11/19 08:07:40;;;;;;;17.70;10.30;;;2.10;99.90;;;;;;5032472;28;20037;-76
2022/11/19 08:10:06;;;;;;;16.40;9.50;;;0.80;99.90;;;;;;5035659;28;20041;-77
2022/11/19 08:12:32;;;;;;;15.77;9.43;;;0.80;99.90;;;;;;5039083;28;20034;-77
2022/11/19 08:14:58;;;;;;;17.38;10.38;;;0.80;99.90;;;;;;5015327;28;20048;-77
2022/11/19 08:20:09;;;;;;;15.38;9.20;;;1.30;99.90;;;;;;5041997;28;20041;-77
2022/11/19 08:22:35;;;;;;;15.10;9.30;;;0.80;99.90;;;;;;5022990;28;20041;-77
2022/11/19 08:25:02;;;;;;;15.45;8.68;;;1.00;99.90;;;;;;5047806;28;20041;-77
2022/11/19 08:27:28;;;;;;;17.65;9.80;;;1.40;99.90;;;;;;5028460;28;20133;-77
2022/11/19 08:29:54;;;;;;;17.05;10.20;;;0.80;99.90;;;;;;5037579;28;20515;-77
2022/11/19 08:32:19;;;;;;;15.93;9.35;;;0.80;99.90;;;;;;5039409;28;20041;-77
2022/11/19 08:34:45;;;;;;;14.70;8.85;;;0.80;99.90;;;;;;5032594;28;20505;-77
2022/11/19 08:37:12;;;;;;;18.98;8.98;;;0.90;99.90;;;;;;5035682;28;20040;-77
2022/11/19 08:39:40;;;;;;;16.23;9.30;;;0.90;99.90;;;;;;5022332;28;20463;-77
2022/11/19 08:44:54;;;;;;;14.82;8.13;;;0.80;99.90;;;;;;5049248;28;20493;-77
2022/11/19 08:47:19;;;;;;;15.27;8.90;;;1.00;99.90;;;;;;5039087;28;20051;-77
2022/11/19 08:49:45;;;;;;;14.85;9.05;;;0.90;99.90;;;;;;5013620;28;20045;-77
2022/11/19 08:52:12;;;;;;;13.63;8.15;;;1.40;99.90;;;;;;5031803;28;20049;-77
2022/11/19 08:54:37;;;;;;;14.82;8.43;;;0.90;99.90;;;;;;5042940;28;20045;-77
2022/11/19 08:57:03;;;;;;;14.15;8.65;;;0.90;99.90;;;;;;5030780;28;20048;-77
2022/11/19 08:59:29;;;;;;;19.17;11.18;;;1.00;99.90;;;;;;5014488;28;20044;-77
2022/11/19 09:01:54;;;;;;;17.30;10.30;;;2.30;99.90;;;;;;5040215;28;20198;-77
2022/11/19 09:04:20;;;;;;;15.48;9.57;;;1.00;99.90;;;;;;5034051;28;20041;-77
2022/11/19 09:06:45;;;;;;;16.95;8.82;;;1.00;99.90;;;;;;5030344;28;20395;-77
2022/11/19 09:09:11;;;;;;;14.35;8.57;;;1.20;99.90;;;;;;5014620;28;20052;-77
2022/11/19 09:11:36;;;;;;;14.10;8.18;;;1.20;99.90;;;;;;5042723;28;20116;-77
2022/11/19 09:14:02;;;;;;;14.95;8.30;;;1.00;99.90;;;;;;5029638;28;20401;-77
2022/11/19 09:16:27;;;;;;;13.73;8.15;;;1.00;99.90;;;;;;5042653;28;20195;-77
2022/11/19 09:18:53;;;;;;;14.60;8.25;;;1.00;99.90;;;;;;5036220;28;20038;-77
2022/11/19 09:21:19;;;;;;;14.75;7.90;;;1.00;99.90;;;;;;5035083;28;20047;-77
2022/11/19 09:23:44;;;;;;;12.98;8.27;;;1.10;99.90;;;;;;5049505;28;20520;-77
2022/11/19 09:26:15;;;;;;;14.20;8.50;;;2.50;99.90;;;;;;5042431;28;20497;-77
2022/11/19 09:28:42;;;;;;;13.35;8.10;;;1.00;99.90;;;;;;5038172;28;20582;-77
2022/11/19 09:31:10;;;;;;;13.88;8.25;;;1.10;99.90;;;;;;5025089;28;20116;-77
2022/11/19 09:33:40;;;;;;;12.98;7.75;;;1.10;99.90;;;;;;5039957;28;20037;-77
2022/11/19 09:36:07;;;;;;;13.55;8.07;;;1.00;99.90;;;;;;5028934;28;20041;-77
2022/11/19 09:38:35;;;;;;;13.35;8.00;;;1.20;99.90;;;;;;5031187;28;20033;-77
2022/11/19 09:41:17;;;;;;;11.13;7.13;;;1.20;99.90;;;;;;5035047;28;20485;-77
2022/11/19 09:43:58;;;;;;;13.48;7.78;;;1.20;99.90;;;;;;5032581;28;20044;-77
2022/11/19 09:46:46;;;;;;;14.43;7.47;;;1.30;99.90;;;;;;5039897;28;20041;-77
2022/11/19 09:49:20;;;;;;;13.48;7.88;;;1.30;99.90;;;;;;5021854;28;20168;-77
2022/11/19 09:51:54;;;;;;;13.48;8.05;;;2.30;99.90;;;;;;5040841;28;20037;-77
2022/11/19 09:54:22;;;;;;;13.07;8.00;;;1.30;99.90;;;;;;5016243;28;20048;-77
2022/11/19 09:56:50;;;;;;;12.75;8.05;;;1.20;99.90;;;;;;5029583;28;20509;-77
2022/11/19 09:59:36;;;;;;;12.07;7.28;;;1.30;99.90;;;;;;5031690;28;20124;-77
2022/11/19 10:02:21;;;;;;;12.82;7.38;;;1.40;99.90;;;;;;5046665;28;20051;-77
2022/11/19 10:04:49;;;;;;;12.18;7.03;;;1.30;99.90;;;;;;5029596;28;20038;-77
2022/11/19 10:07:32;;;;;;;11.93;7.53;;;1.30;99.90;;;;;;5025041;28;20037;-77
2022/11/19 10:10:40;;;;;;;11.25;7.03;;;1.70;99.90;;;;;;5038688;28;20044;-77
2022/11/19 10:13:28;;;;;;;11.82;6.90;;;1.50;99.90;;;;;;5022586;28;20045;-77
2022/11/19 10:16:37;;;;;;;12.15;7.25;;;1.50;99.90;;;;;;5023080;28;20038;-77
2022/11/19 10:19:30;;;;;;;15.18;8.07;;;1.50;99.90;;;;;;5024345;28;20564;-77
2022/11/19 10:22:22;;;;;;;13.88;7.70;;;1.50;99.90;;;;;;5030370;28;20045;-77
2022/11/19 10:25:16;;;;;;;11.60;7.50;;;1.50;99.90;;;;;;5029655;28;20044;-77
2022/11/19 10:27:50;;;;;;;12.65;7.10;;;1.60;99.90;;;;;;5035020;28;20045;-77
2022/11/19 10:30:22;;;;;;;12.77;7.53;;;1.60;99.90;;;;;;5023948;28;20050;-78
2022/11/19 10:32:54;;;;;;;11.18;6.47;;;1.90;99.90;;;;;;5030868;28;20033;-77
2022/11/19 10:35:28;;;;;;;12.37;7.60;;;1.50;99.90;;;;;;5032801;28;20046;-77
2022/11/19 10:38:04;;;;;;;11.57;6.93;;;1.60;99.90;;;;;;5045346;28;20102;-77
2022/11/19 10:40:36;;;;;;;11.93;7.35;;;1.60;99.90;;;;;;5046528;28;20126;-77
2022/11/19 10:43:07;;;;;;;;;;;1.70;99.90;;;;;;5041104;28;20045;-77
2022/11/19 10:45:33;;;;;;;12.38;6.68;;;1.70;99.90;;;;;;5040876;28;19917;-77
2022/11/19 10:48:15;;;;;;;12.70;7.20;;;2.60;99.90;;;;;;5041535;28;20040;-77
2022/11/19 10:50:41;;;;;;;11.25;6.38;;;1.70;99.90;;;;;;5041085;28;20087;-77
2022/11/19 10:53:35;;;;;;;14.25;7.55;;;1.70;99.90;;;;;;5045898;28;20045;-78
2022/11/19 10:56:04;;;;;;;13.88;7.22;;;1.80;99.90;;;;;;5037002;28;20037;-78
2022/11/19 10:58:34;;;;;;;12.63;7.13;;;1.80;99.90;;;;;;5032682;28;20037;-78
2022/11/19 11:01:02;;;;;;;12.60;7.35;;;1.80;99.90;;;;;;5049582;28;20033;-78
2022/11/19 11:03:46;;;;;;;12.85;7.40;;;1.80;99.90;;;;;;5042033;28;20095;-78
2022/11/19 11:06:12;;;;;;;11.38;6.93;;;1.90;99.90;;;;;;5012869;28;20046;-78
2022/11/19 11:08:53;;;;;;;11.70;7.15;;;1.80;99.90;;;;;;5044017;28;20124;-79
2022/11/19 11:14:50;;;;;;;12.27;7.47;;;1.90;99.90;;;;;;5050920;28;20497;-78
2022/11/19 11:17:18;;;;;;;11.48;6.90;;;2.00;99.90;;;;;;5049074;28;20106;-78
2022/11/19 11:19:43;;;;;;;10.68;6.85;;;1.80;99.90;;;;;;5028521;28;20032;-78
2022/11/19 11:22:09;;;;;;;12.18;6.82;;;2.00;99.90;;;;;;5036360;28;20508;-79
2022/11/19 11:24:38;;;;;;;10.43;6.40;;;2.20;99.90;;;;;;5045124;28;20091;-78
2022/11/19 11:27:36;;;;;;;12.73;7.15;;;2.30;99.90;;;;;;5020114;28;20045;-79
2022/11/19 11:30:13;;;;;;;11.77;6.35;;;2.40;99.90;;;;;;4989289;28;20505;-79
2022/11/19 11:32:40;;;;;;;10.40;6.70;;;2.50;99.90;;;;;;5035790;28;20041;-79
2022/11/19 11:35:34;;;;;;;11.63;7.15;;;2.60;99.90;;;;;;5034828;28;20034;-79
2022/11/19 11:38:01;;;;;;;11.07;6.80;;;2.70;99.90;;;;;;5049340;28;20029;-78
2022/11/19 11:40:28;;;;;;;10.40;6.68;;;2.80;99.90;;;;;;5048945;28;20572;-79
2022/11/19 11:42:55;;;;;;;12.60;6.90;;;2.80;99.90;;;;;;5041302;28;20042;-79
2022/11/19 11:45:35;;;;;;;10.45;6.65;;;2.90;99.90;;;;;;5035565;28;20095;-79
2022/11/19 11:48:16;;;;;;;10.15;6.60;;;3.00;99.90;;;;;;5047669;28;20036;-79
2022/11/19 11:50:45;;;;;;;10.68;6.45;;;3.00;99.90;;;;;;5032587;28;20045;-78
2022/11/19 11:53:15;;;;;;;10.18;5.95;;;3.10;99.90;;;;;;5036254;28;20045;-79
2022/11/19 11:55:40;;;;;;;8.75;5.65;;;3.20;99.90;;;;;;5034844;28;20042;-79
2022/11/19 11:58:30;;;;;;;9.40;6.07;;;3.30;99.90;;;;;;5035282;28;20060;-78
2022/11/19 12:01:14;;;;;;;9.43;5.60;;;3.30;99.90;;;;;;5039066;28;20065;-79
2022/11/19 12:03:57;;;;;;;9.68;5.68;;;3.40;99.90;;;;;;5032391;28;20490;-79
2022/11/19 12:06:36;;;;;;;9.32;6.15;;;3.40;99.90;;;;;;5016575;28;20045;-78
2022/11/19 12:09:14;;;;;;;9.75;6.03;;;3.40;99.90;;;;;;5037027;28;20041;-78
2022/11/19 12:11:54;;;;;;;9.43;6.28;;;3.60;99.90;;;;;;5016686;28;20052;-79
2022/11/19 12:14:38;;;;;;;9.00;5.25;;;3.50;99.90;;;;;;5034580;28;20103;-79
2022/11/19 12:17:28;;;;;;;8.13;5.43;;;3.50;99.90;;;;;;5045156;28;20143;-79
2022/11/19 12:20:00;;;;;;;9.43;6.05;;;3.60;99.90;;;;;;5039588;28;20041;-80
2022/11/19 12:22:57;;;;;;;9.27;5.68;;;3.60;99.90;;;;;;5034906;28;20080;-79
2022/11/19 12:25:49;;;;;;;8.27;5.13;;;3.60;99.90;;;;;;5016874;28;20061;-79
2022/11/19 12:28:21;;;;;;;8.00;5.10;;;3.70;99.90;;;;;;5036325;28;20054;-79
2022/11/19 12:31:24;;;;;;;8.23;5.00;;;3.50;99.90;;;;;;5043379;28;20040;-79
2022/11/19 12:33:56;;;;;;;;;;;3.70;99.90;;;;;;5041639;28;20041;-79
2022/11/19 12:36:36;;;;;;;9.68;5.05;;;3.60;99.90;;;;;;5044237;28;19925;-79
2022/11/19 12:39:38;;;;;;;7.45;5.18;;;3.70;99.90;;;;;;5036673;28;20455;-79
2022/11/19 12:42:38;;;;;;;8.38;5.18;;;3.70;99.90;;;;;;5035419;28;20045;-79
2022/11/19 12:45:18;;;;;;;6.97;4.90;;;3.80;99.90;;;;;;5041520;28;20052;-79
2022/11/19 12:48:21;;;;;;;9.73;5.28;;;4.00;99.90;;;;;;5047393;28;20489;-78
2022/11/19 12:51:01;;;;;;;9.15;5.50;;;4.20;99.90;;;;;;5020449;28;20049;-78
2022/11/19 12:53:58;;;;;;;10.20;5.40;;;4.30;99.90;;;;;;5034474;28;20641;-78
2022/11/19 12:56:48;;;;;;;8.75;5.43;;;4.60;99.90;;;;;;5046872;28;20052;-78
2022/11/19 12:59:40;;;;;;;8.40;4.88;;;4.80;99.90;;;;;;5033627;28;20486;-78
2022/11/19 13:02:16;;;;;;;8.88;5.15;;;5.30;99.90;;;;;;5015357;28;20490;-78
2022/11/19 13:04:52;;;;;;;7.90;4.90;;;5.00;99.90;;;;;;5037405;28;20037;-78
2022/11/19 13:07:31;;;;;;;10.10;5.25;;;5.10;99.90;;;;;;5033333;28;20049;-79
2022/11/19 13:10:17;;;;;;;7.47;5.10;;;5.30;99.90;;;;;;5029769;28;20108;-78
2022/11/19 13:12:48;;;;;;;9.57;5.30;;;5.50;99.90;;;;;;5024801;28;20037;-78
2022/11/19 13:15:20;;;;;;;10.13;4.90;;;5.60;99.90;;;;;;5044729;28;20045;-78
2022/11/19 13:17:51;;;;;;;8.88;5.22;;;6.00;99.90;;;;;;5044915;28;20029;-78
2022/11/19 13:20:30;;;;;;;8.75;5.10;;;6.10;99.90;;;;;;5039135;28;20044;-78
2022/11/19 13:23:03;;;;;;;9.40;5.25;;;6.20;99.90;;;;;;5027494;28;20041;-78
2022/11/19 13:25:28;;;;;;;7.90;5.55;;;6.30;99.90;;;;;;5033953;28;20041;-78
2022/11/19 13:27:56;;;;;;;8.23;5.18;;;6.40;99.90;;;;;;5015682;28;20048;-78
2022/11/19 13:30:25;;;;;;;9.95;6.05;;;6.30;99.90;;;;;;5046984;28;20052;-78
2022/11/19 13:33:16;;;;;;;10.48;5.35;;;6.40;99.90;;;;;;5025134;28;20029;-78
2022/11/19 13:36:02;;;;;;;8.15;5.22;;;5.60;99.90;;;;;;5035899;28;20067;-78
2022/11/19 13:38:47;;;;;;;7.97;4.95;;;5.70;99.90;;;;;;5027305;28;20041;-78
2022/11/19 13:44:37;;;;;;;8.07;5.20;;;6.10;99.90;;;;;;5019816;28;20041;-78
2022/11/19 13:44:40;;;;;;;9.70;5.55;;;6.80;99.90;;;;;;5033703;28;20131;-78